sensor_id;sensor_type;location;lat;lon;timestamp;P1;durP1;ratioP1;P2;durP2;ratioP2
27746;SDS011;15138;51.012;4.692;2023-03-04T00:01:00;25.90;;;6.93;;
27746;SDS011;15138;51.012;4.692;2023-03-04T00:03:29;22.63;;;6.30;;
27746;SDS011;15138;51.012;4.692;2023-03-04T00:05:57;18.88;;;6.00;;
27746;SDS011;15138;51.012;4.692;2023-03-04T00:08:26;23.95;;;7.22;;
27746;SDS011;15138;51.012;4.692;2023-03-04T00:10:54;13.80;;;4.57;;
27746;SDS011;15138;51.012;4.692;2023-03-04T00:13:23;16.42;;;5.55;;
27746;SDS011;15138;51.012;4.692;2023-03-04T00:15:52;14.43;;;5.10;;
27746;SDS011;15138;51.012;4.692;2023-03-04T00:18:20;20.75;;;5.97;;
27746;SDS011;15138;51.012;4.692;2023-03-04T00:20:49;21.80;;;6.68;;
27746;SDS011;15138;51.012;4.692;2023-03-04T00:23:17;19.30;;;5.32;;
27746;SDS011;15138;51.012;4.692;2023-03-04T00:25:46;15.40;;;4.95;;
27746;SDS011;15138;51.012;4.692;2023-03-04T00:28:14;18.05;;;5.88;;
27746;SDS011;15138;51.012;4.692;2023-03-04T00:30:42;16.90;;;5.53;;
27746;SDS011;15138;51.012;4.692;2023-03-04T00:33:12;16.17;;;5.30;;
27746;SDS011;15138;51.012;4.692;2023-03-04T00:35:40;21.20;;;7.07;;
27746;SDS011;15138;51.012;4.692;2023-03-04T00:38:09;14.02;;;5.05;;
27746;SDS011;15138;51.012;4.692;2023-03-04T00:40:37;15.20;;;5.35;;
27746;SDS011;15138;51.012;4.692;2023-03-04T00:43:06;25.63;;;6.95;;
27746;SDS011;15138;51.012;4.692;2023-03-04T00:45:34;19.52;;;5.60;;
27746;SDS011;15138;51.012;4.692;2023-03-04T00:48:02;25.52;;;7.57;;
27746;SDS011;15138;51.012;4.692;2023-03-04T00:50:32;23.40;;;6.80;;
27746;SDS011;15138;51.012;4.692;2023-03-04T00:53:00;19.58;;;5.95;;
27746;SDS011;15138;51.012;4.692;2023-03-04T00:55:29;26.52;;;7.35;;
27746;SDS011;15138;51.012;4.692;2023-03-04T00:57:58;14.55;;;4.95;;
27746;SDS011;15138;51.012;4.692;2023-03-04T01:00:26;14.48;;;4.88;;
27746;SDS011;15138;51.012;4.692;2023-03-04T01:02:54;23.83;;;5.75;;
27746;SDS011;15138;51.012;4.692;2023-03-04T01:05:22;14.20;;;4.00;;
27746;SDS011;15138;51.012;4.692;2023-03-04T01:07:52;11.20;;;4.18;;
27746;SDS011;15138;51.012;4.692;2023-03-04T01:10:20;14.23;;;4.45;;
27746;SDS011;15138;51.012;4.692;2023-03-04T01:12:49;22.52;;;5.35;;
27746;SDS011;15138;51.012;4.692;2023-03-04T01:15:17;16.95;;;4.68;;
27746;SDS011;15138;51.012;4.692;2023-03-04T01:17:45;26.38;;;6.35;;
27746;SDS011;15138;51.012;4.692;2023-03-04T01:20:14;24.70;;;6.35;;
27746;SDS011;15138;51.012;4.692;2023-03-04T01:22:43;19.48;;;5.43;;
27746;SDS011;15138;51.012;4.692;2023-03-04T01:25:13;18.92;;;4.85;;
27746;SDS011;15138;51.012;4.692;2023-03-04T01:27:41;22.17;;;6.47;;
27746;SDS011;15138;51.012;4.692;2023-03-04T01:30:10;18.45;;;5.50;;
27746;SDS011;15138;51.012;4.692;2023-03-04T01:32:39;15.15;;;4.13;;
27746;SDS011;15138;51.012;4.692;2023-03-04T01:35:07;22.23;;;6.05;;
27746;SDS011;15138;51.012;4.692;2023-03-04T01:37:36;14.55;;;4.90;;
27746;SDS011;15138;51.012;4.692;2023-03-04T01:40:05;15.55;;;4.53;;
27746;SDS011;15138;51.012;4.692;2023-03-04T01:42:36;14.15;;;3.70;;
27746;SDS011;15138;51.012;4.692;2023-03-04T01:45:05;11.77;;;4.25;;
27746;SDS011;15138;51.012;4.692;2023-03-04T01:47:37;17.33;;;5.15;;
27746;SDS011;15138;51.012;4.692;2023-03-04T01:50:06;19.75;;;5.97;;
27746;SDS011;15138;51.012;4.692;2023-03-04T01:52:42;15.88;;;4.18;;
27746;SDS011;15138;51.012;4.692;2023-03-04T01:55:13;15.98;;;4.40;;
27746;SDS011;15138;51.012;4.692;2023-03-04T01:57:46;16.98;;;6.35;;
27746;SDS011;15138;51.012;4.692;2023-03-04T02:00:22;17.20;;;5.25;;
27746;SDS011;15138;51.012;4.692;2023-03-04T02:02:58;14.45;;;4.70;;
27746;SDS011;15138;51.012;4.692;2023-03-04T02:05:27;19.08;;;5.53;;
27746;SDS011;15138;51.012;4.692;2023-03-04T02:07:57;19.45;;;4.30;;
27746;SDS011;15138;51.012;4.692;2023-03-04T02:10:26;19.73;;;4.57;;
27746;SDS011;15138;51.012;4.692;2023-03-04T02:12:57;13.23;;;4.80;;
27746;SDS011;15138;51.012;4.692;2023-03-04T02:15:27;13.55;;;3.85;;
27746;SDS011;15138;51.012;4.692;2023-03-04T02:17:56;12.38;;;2.80;;
27746;SDS011;15138;51.012;4.692;2023-03-04T02:20:27;16.60;;;4.47;;
27746;SDS011;15138;51.012;4.692;2023-03-04T02:23:03;19.42;;;4.50;;
27746;SDS011;15138;51.012;4.692;2023-03-04T02:25:37;15.52;;;3.78;;
27746;SDS011;15138;51.012;4.692;2023-03-04T02:28:12;20.25;;;4.03;;
27746;SDS011;15138;51.012;4.692;2023-03-04T02:30:41;21.83;;;4.30;;
27746;SDS011;15138;51.012;4.692;2023-03-04T02:33:12;15.07;;;4.07;;
27746;SDS011;15138;51.012;4.692;2023-03-04T02:35:43;19.25;;;5.13;;
27746;SDS011;15138;51.012;4.692;2023-03-04T02:38:12;15.15;;;4.15;;
27746;SDS011;15138;51.012;4.692;2023-03-04T02:40:41;16.58;;;5.07;;
27746;SDS011;15138;51.012;4.692;2023-03-04T02:43:14;14.65;;;3.65;;
27746;SDS011;15138;51.012;4.692;2023-03-04T02:45:43;19.08;;;4.20;;
27746;SDS011;15138;51.012;4.692;2023-03-04T02:48:14;16.05;;;4.20;;
27746;SDS011;15138;51.012;4.692;2023-03-04T02:50:44;21.55;;;4.82;;
27746;SDS011;15138;51.012;4.692;2023-03-04T02:53:14;11.27;;;4.05;;
27746;SDS011;15138;51.012;4.692;2023-03-04T02:55:43;19.90;;;5.15;;
27746;SDS011;15138;51.012;4.692;2023-03-04T02:58:12;20.23;;;5.25;;
27746;SDS011;15138;51.012;4.692;2023-03-04T03:00:42;21.42;;;5.53;;
27746;SDS011;15138;51.012;4.692;2023-03-04T03:03:10;17.65;;;4.35;;
27746;SDS011;15138;51.012;4.692;2023-03-04T03:05:39;25.05;;;5.57;;
27746;SDS011;15138;51.012;4.692;2023-03-04T03:08:08;21.83;;;5.28;;
27746;SDS011;15138;51.012;4.692;2023-03-04T03:10:36;14.32;;;4.50;;
27746;SDS011;15138;51.012;4.692;2023-03-04T03:13:04;22.67;;;5.78;;
27746;SDS011;15138;51.012;4.692;2023-03-04T03:15:33;18.00;;;4.50;;
27746;SDS011;15138;51.012;4.692;2023-03-04T03:18:03;24.48;;;5.50;;
27746;SDS011;15138;51.012;4.692;2023-03-04T03:20:31;16.02;;;4.40;;
27746;SDS011;15138;51.012;4.692;2023-03-04T03:22:59;12.68;;;4.45;;
27746;SDS011;15138;51.012;4.692;2023-03-04T03:25:27;22.42;;;5.93;;
27746;SDS011;15138;51.012;4.692;2023-03-04T03:27:56;19.77;;;5.18;;
27746;SDS011;15138;51.012;4.692;2023-03-04T03:30:24;31.15;;;6.30;;
27746;SDS011;15138;51.012;4.692;2023-03-04T03:32:53;28.77;;;6.13;;
27746;SDS011;15138;51.012;4.692;2023-03-04T03:35:23;13.55;;;4.00;;
27746;SDS011;15138;51.012;4.692;2023-03-04T03:37:51;19.88;;;5.85;;
27746;SDS011;15138;51.012;4.692;2023-03-04T03:40:19;17.15;;;4.70;;
27746;SDS011;15138;51.012;4.692;2023-03-04T03:42:48;26.33;;;5.85;;
27746;SDS011;15138;51.012;4.692;2023-03-04T03:45:16;22.65;;;5.20;;
27746;SDS011;15138;51.012;4.692;2023-03-04T03:47:44;24.75;;;5.88;;
27746;SDS011;15138;51.012;4.692;2023-03-04T03:50:13;25.70;;;6.63;;
27746;SDS011;15138;51.012;4.692;2023-03-04T03:52:43;18.08;;;4.03;;
27746;SDS011;15138;51.012;4.692;2023-03-04T03:55:11;18.77;;;4.28;;
27746;SDS011;15138;51.012;4.692;2023-03-04T03:57:40;19.65;;;4.72;;
27746;SDS011;15138;51.012;4.692;2023-03-04T04:00:11;17.27;;;4.32;;
27746;SDS011;15138;51.012;4.692;2023-03-04T04:02:40;21.80;;;4.30;;
27746;SDS011;15138;51.012;4.692;2023-03-04T04:05:09;24.02;;;5.43;;
27746;SDS011;15138;51.012;4.692;2023-03-04T04:07:38;18.50;;;3.50;;
27746;SDS011;15138;51.012;4.692;2023-03-04T04:10:09;17.70;;;4.07;;
27746;SDS011;15138;51.012;4.692;2023-03-04T04:12:38;20.20;;;4.13;;
27746;SDS011;15138;51.012;4.692;2023-03-04T04:15:08;14.95;;;3.67;;
27746;SDS011;15138;51.012;4.692;2023-03-04T04:17:37;19.00;;;4.53;;
27746;SDS011;15138;51.012;4.692;2023-03-04T04:20:06;34.15;;;5.72;;
27746;SDS011;15138;51.012;4.692;2023-03-04T04:22:36;31.25;;;5.47;;
27746;SDS011;15138;51.012;4.692;2023-03-04T04:25:04;14.52;;;3.13;;
27746;SDS011;15138;51.012;4.692;2023-03-04T04:27:37;15.13;;;3.30;;
27746;SDS011;15138;51.012;4.692;2023-03-04T04:30:05;16.35;;;3.70;;
27746;SDS011;15138;51.012;4.692;2023-03-04T04:32:34;15.68;;;3.75;;
27746;SDS011;15138;51.012;4.692;2023-03-04T04:35:03;15.75;;;4.07;;
27746;SDS011;15138;51.012;4.692;2023-03-04T04:37:31;17.90;;;3.58;;
27746;SDS011;15138;51.012;4.692;2023-03-04T04:40:00;20.95;;;4.28;;
27746;SDS011;15138;51.012;4.692;2023-03-04T04:42:28;15.55;;;3.70;;
27746;SDS011;15138;51.012;4.692;2023-03-04T04:44:58;20.02;;;3.85;;
27746;SDS011;15138;51.012;4.692;2023-03-04T04:47:26;16.98;;;3.92;;
27746;SDS011;15138;51.012;4.692;2023-03-04T04:49:55;24.13;;;5.30;;
27746;SDS011;15138;51.012;4.692;2023-03-04T04:52:23;22.55;;;5.20;;
27746;SDS011;15138;51.012;4.692;2023-03-04T04:54:51;19.17;;;5.53;;
27746;SDS011;15138;51.012;4.692;2023-03-04T04:57:20;25.77;;;4.75;;
27746;SDS011;15138;51.012;4.692;2023-03-04T04:59:48;16.17;;;4.40;;
27746;SDS011;15138;51.012;4.692;2023-03-04T05:02:18;20.15;;;3.05;;
27746;SDS011;15138;51.012;4.692;2023-03-04T05:04:46;17.02;;;4.25;;
27746;SDS011;15138;51.012;4.692;2023-03-04T05:07:14;8.77;;;2.95;;
27746;SDS011;15138;51.012;4.692;2023-03-04T05:09:43;10.77;;;2.65;;
27746;SDS011;15138;51.012;4.692;2023-03-04T05:12:12;13.02;;;4.43;;
27746;SDS011;15138;51.012;4.692;2023-03-04T05:14:40;7.78;;;2.50;;
27746;SDS011;15138;51.012;4.692;2023-03-04T05:17:08;22.92;;;4.28;;
27746;SDS011;15138;51.012;4.692;2023-03-04T05:19:38;20.20;;;4.70;;
27746;SDS011;15138;51.012;4.692;2023-03-04T05:22:06;18.25;;;4.18;;
27746;SDS011;15138;51.012;4.692;2023-03-04T05:24:35;15.77;;;4.00;;
27746;SDS011;15138;51.012;4.692;2023-03-04T05:27:03;14.75;;;2.85;;
27746;SDS011;15138;51.012;4.692;2023-03-04T05:29:31;10.05;;;2.97;;
27746;SDS011;15138;51.012;4.692;2023-03-04T05:32:00;15.18;;;3.35;;
27746;SDS011;15138;51.012;4.692;2023-03-04T05:34:28;12.48;;;3.30;;
27746;SDS011;15138;51.012;4.692;2023-03-04T05:36:59;19.65;;;4.63;;
27746;SDS011;15138;51.012;4.692;2023-03-04T05:39:27;15.32;;;3.88;;
27746;SDS011;15138;51.012;4.692;2023-03-04T05:41:56;13.65;;;3.30;;
27746;SDS011;15138;51.012;4.692;2023-03-04T05:44:25;22.67;;;4.65;;
27746;SDS011;15138;51.012;4.692;2023-03-04T05:46:58;12.50;;;2.88;;
27746;SDS011;15138;51.012;4.692;2023-03-04T05:49:29;12.93;;;3.38;;
27746;SDS011;15138;51.012;4.692;2023-03-04T05:51:59;19.08;;;4.13;;
27746;SDS011;15138;51.012;4.692;2023-03-04T05:54:28;14.23;;;3.28;;
27746;SDS011;15138;51.012;4.692;2023-03-04T05:56:56;16.83;;;3.00;;
27746;SDS011;15138;51.012;4.692;2023-03-04T05:59:25;13.07;;;3.15;;
27746;SDS011;15138;51.012;4.692;2023-03-04T06:01:53;11.48;;;3.42;;
27746;SDS011;15138;51.012;4.692;2023-03-04T06:04:22;19.85;;;5.43;;
27746;SDS011;15138;51.012;4.692;2023-03-04T06:06:50;21.05;;;6.70;;
27746;SDS011;15138;51.012;4.692;2023-03-04T06:09:20;23.52;;;6.72;;
27746;SDS011;15138;51.012;4.692;2023-03-04T06:11:48;15.32;;;4.35;;
27746;SDS011;15138;51.012;4.692;2023-03-04T06:14:16;20.65;;;4.88;;
27746;SDS011;15138;51.012;4.692;2023-03-04T06:16:45;19.17;;;6.07;;
27746;SDS011;15138;51.012;4.692;2023-03-04T06:19:13;21.98;;;7.15;;
27746;SDS011;15138;51.012;4.692;2023-03-04T06:21:42;17.13;;;4.65;;
27746;SDS011;15138;51.012;4.692;2023-03-04T06:24:10;17.85;;;6.93;;
27746;SDS011;15138;51.012;4.692;2023-03-04T06:26:39;22.25;;;5.93;;
27746;SDS011;15138;51.012;4.692;2023-03-04T06:29:08;16.70;;;5.70;;
27746;SDS011;15138;51.012;4.692;2023-03-04T06:31:36;9.50;;;3.28;;
27746;SDS011;15138;51.012;4.692;2023-03-04T06:34:07;22.63;;;6.57;;
27746;SDS011;15138;51.012;4.692;2023-03-04T06:36:36;31.67;;;7.47;;
27746;SDS011;15138;51.012;4.692;2023-03-04T06:39:04;17.67;;;4.55;;
27746;SDS011;15138;51.012;4.692;2023-03-04T06:41:34;19.73;;;5.43;;
27746;SDS011;15138;51.012;4.692;2023-03-04T06:44:04;14.80;;;4.28;;
27746;SDS011;15138;51.012;4.692;2023-03-04T06:46:32;13.07;;;3.45;;
27746;SDS011;15138;51.012;4.692;2023-03-04T06:49:01;17.70;;;4.68;;
27746;SDS011;15138;51.012;4.692;2023-03-04T06:51:29;9.52;;;3.63;;
27746;SDS011;15138;51.012;4.692;2023-03-04T06:53:58;18.33;;;5.05;;
27746;SDS011;15138;51.012;4.692;2023-03-04T06:56:26;13.80;;;3.90;;
27746;SDS011;15138;51.012;4.692;2023-03-04T06:58:54;23.13;;;4.05;;
27746;SDS011;15138;51.012;4.692;2023-03-04T07:01:24;9.27;;;2.85;;
27746;SDS011;15138;51.012;4.692;2023-03-04T07:03:55;16.52;;;4.00;;
27746;SDS011;15138;51.012;4.692;2023-03-04T07:06:25;18.50;;;5.28;;
27746;SDS011;15138;51.012;4.692;2023-03-04T07:08:55;15.27;;;3.50;;
27746;SDS011;15138;51.012;4.692;2023-03-04T07:11:24;11.43;;;2.72;;
27746;SDS011;15138;51.012;4.692;2023-03-04T07:13:53;18.25;;;4.45;;
27746;SDS011;15138;51.012;4.692;2023-03-04T07:16:22;16.50;;;4.32;;
27746;SDS011;15138;51.012;4.692;2023-03-04T07:18:52;15.38;;;4.10;;
27746;SDS011;15138;51.012;4.692;2023-03-04T07:21:20;19.17;;;5.13;;
27746;SDS011;15138;51.012;4.692;2023-03-04T07:23:48;10.73;;;3.38;;
27746;SDS011;15138;51.012;4.692;2023-03-04T07:26:17;5.95;;;2.63;;
27746;SDS011;15138;51.012;4.692;2023-03-04T07:28:45;5.97;;;2.40;;
27746;SDS011;15138;51.012;4.692;2023-03-04T07:31:18;15.07;;;4.35;;
27746;SDS011;15138;51.012;4.692;2023-03-04T07:33:49;11.23;;;3.67;;
27746;SDS011;15138;51.012;4.692;2023-03-04T07:36:20;13.73;;;3.60;;
27746;SDS011;15138;51.012;4.692;2023-03-04T07:38:48;15.30;;;3.03;;
27746;SDS011;15138;51.012;4.692;2023-03-04T07:41:20;5.78;;;2.50;;
27746;SDS011;15138;51.012;4.692;2023-03-04T07:43:50;15.52;;;3.13;;
27746;SDS011;15138;51.012;4.692;2023-03-04T07:46:19;16.80;;;3.47;;
27746;SDS011;15138;51.012;4.692;2023-03-04T07:48:48;10.00;;;2.50;;
27746;SDS011;15138;51.012;4.692;2023-03-04T07:51:18;12.07;;;3.22;;
27746;SDS011;15138;51.012;4.692;2023-03-04T07:53:49;16.42;;;3.83;;
27746;SDS011;15138;51.012;4.692;2023-03-04T07:56:20;20.60;;;3.28;;
27746;SDS011;15138;51.012;4.692;2023-03-04T07:58:50;15.82;;;3.22;;
27746;SDS011;15138;51.012;4.692;2023-03-04T08:01:19;13.13;;;3.13;;
27746;SDS011;15138;51.012;4.692;2023-03-04T08:03:48;21.45;;;3.28;;
27746;SDS011;15138;51.012;4.692;2023-03-04T08:06:17;19.75;;;3.35;;
27746;SDS011;15138;51.012;4.692;2023-03-04T08:08:48;22.42;;;2.63;;
27746;SDS011;15138;51.012;4.692;2023-03-04T08:11:17;9.45;;;2.78;;
27746;SDS011;15138;51.012;4.692;2023-03-04T08:13:48;9.20;;;2.05;;
27746;SDS011;15138;51.012;4.692;2023-03-04T08:16:21;19.13;;;3.22;;
27746;SDS011;15138;51.012;4.692;2023-03-04T08:18:50;13.27;;;2.60;;
27746;SDS011;15138;51.012;4.692;2023-03-04T08:21:22;10.43;;;2.78;;
27746;SDS011;15138;51.012;4.692;2023-03-04T08:23:51;15.02;;;3.35;;
27746;SDS011;15138;51.012;4.692;2023-03-04T08:26:22;6.35;;;2.08;;
27746;SDS011;15138;51.012;4.692;2023-03-04T08:28:52;13.18;;;2.30;;
27746;SDS011;15138;51.012;4.692;2023-03-04T08:31:22;14.10;;;2.95;;
27746;SDS011;15138;51.012;4.692;2023-03-04T08:33:50;15.93;;;3.45;;
27746;SDS011;15138;51.012;4.692;2023-03-04T08:36:19;15.25;;;2.70;;
27746;SDS011;15138;51.012;4.692;2023-03-04T08:38:49;11.57;;;3.05;;
27746;SDS011;15138;51.012;4.692;2023-03-04T08:41:17;13.90;;;2.58;;
27746;SDS011;15138;51.012;4.692;2023-03-04T08:43:46;12.95;;;3.10;;
27746;SDS011;15138;51.012;4.692;2023-03-04T08:46:14;12.55;;;2.50;;
27746;SDS011;15138;51.012;4.692;2023-03-04T08:48:43;9.25;;;2.40;;
27746;SDS011;15138;51.012;4.692;2023-03-04T08:51:12;11.40;;;2.80;;
27746;SDS011;15138;51.012;4.692;2023-03-04T08:53:43;13.75;;;2.53;;
27746;SDS011;15138;51.012;4.692;2023-03-04T08:56:13;9.55;;;2.78;;
27746;SDS011;15138;51.012;4.692;2023-03-04T08:58:42;11.93;;;3.00;;
27746;SDS011;15138;51.012;4.692;2023-03-04T09:01:11;13.48;;;2.60;;
27746;SDS011;15138;51.012;4.692;2023-03-04T09:03:40;13.85;;;3.33;;
27746;SDS011;15138;51.012;4.692;2023-03-04T09:06:10;13.50;;;2.67;;
27746;SDS011;15138;51.012;4.692;2023-03-04T09:08:45;9.55;;;3.17;;
27746;SDS011;15138;51.012;4.692;2023-03-04T09:11:13;13.45;;;3.15;;
27746;SDS011;15138;51.012;4.692;2023-03-04T09:13:42;16.58;;;3.22;;
27746;SDS011;15138;51.012;4.692;2023-03-04T09:16:11;9.23;;;3.08;;
27746;SDS011;15138;51.012;4.692;2023-03-04T09:18:40;14.93;;;2.90;;
27746;SDS011;15138;51.012;4.692;2023-03-04T09:21:09;18.60;;;2.40;;
27746;SDS011;15138;51.012;4.692;2023-03-04T09:23:38;12.77;;;3.40;;
27746;SDS011;15138;51.012;4.692;2023-03-04T09:26:15;12.93;;;2.90;;
27746;SDS011;15138;51.012;4.692;2023-03-04T09:28:44;9.95;;;2.83;;
27746;SDS011;15138;51.012;4.692;2023-03-04T09:31:12;11.18;;;2.22;;
27746;SDS011;15138;51.012;4.692;2023-03-04T09:33:41;6.53;;;2.35;;
27746;SDS011;15138;51.012;4.692;2023-03-04T09:36:10;10.60;;;2.20;;
27746;SDS011;15138;51.012;4.692;2023-03-04T09:38:40;10.15;;;2.45;;
27746;SDS011;15138;51.012;4.692;2023-03-04T09:41:09;11.60;;;2.38;;
27746;SDS011;15138;51.012;4.692;2023-03-04T09:43:43;10.60;;;1.55;;
27746;SDS011;15138;51.012;4.692;2023-03-04T09:46:13;14.88;;;2.00;;
27746;SDS011;15138;51.012;4.692;2023-03-04T09:48:44;6.25;;;2.10;;
27746;SDS011;15138;51.012;4.692;2023-03-04T09:51:19;9.40;;;1.95;;
27746;SDS011;15138;51.012;4.692;2023-03-04T09:53:56;10.38;;;2.00;;
27746;SDS011;15138;51.012;4.692;2023-03-04T09:56:32;8.60;;;1.80;;
27746;SDS011;15138;51.012;4.692;2023-03-04T09:59:07;9.88;;;1.67;;
27746;SDS011;15138;51.012;4.692;2023-03-04T10:01:45;13.05;;;2.83;;
27746;SDS011;15138;51.012;4.692;2023-03-04T10:04:17;13.35;;;2.50;;
27746;SDS011;15138;51.012;4.692;2023-03-04T10:06:52;7.72;;;1.77;;
27746;SDS011;15138;51.012;4.692;2023-03-04T10:09:22;11.93;;;1.92;;
27746;SDS011;15138;51.012;4.692;2023-03-04T10:11:57;10.98;;;2.28;;
27746;SDS011;15138;51.012;4.692;2023-03-04T10:14:33;11.35;;;2.42;;
27746;SDS011;15138;51.012;4.692;2023-03-04T10:17:06;11.30;;;2.33;;
27746;SDS011;15138;51.012;4.692;2023-03-04T10:19:47;11.35;;;2.78;;
27746;SDS011;15138;51.012;4.692;2023-03-04T10:22:22;9.98;;;1.90;;
27746;SDS011;15138;51.012;4.692;2023-03-04T10:24:57;14.27;;;2.15;;
27746;SDS011;15138;51.012;4.692;2023-03-04T10:27:29;9.05;;;1.83;;
27746;SDS011;15138;51.012;4.692;2023-03-04T10:30:00;8.25;;;1.75;;
27746;SDS011;15138;51.012;4.692;2023-03-04T10:32:28;11.88;;;2.28;;
27746;SDS011;15138;51.012;4.692;2023-03-04T10:34:57;14.10;;;2.60;;
27746;SDS011;15138;51.012;4.692;2023-03-04T10:37:26;6.97;;;2.10;;
27746;SDS011;15138;51.012;4.692;2023-03-04T10:40:17;14.80;;;2.90;;
27746;SDS011;15138;51.012;4.692;2023-03-04T10:42:47;12.18;;;3.03;;
27746;SDS011;15138;51.012;4.692;2023-03-04T10:45:22;14.27;;;2.75;;
27746;SDS011;15138;51.012;4.692;2023-03-04T10:47:52;6.40;;;1.93;;
27746;SDS011;15138;51.012;4.692;2023-03-04T10:50:21;9.23;;;2.63;;
27746;SDS011;15138;51.012;4.692;2023-03-04T10:52:50;13.50;;;2.85;;
27746;SDS011;15138;51.012;4.692;2023-03-04T10:55:21;11.55;;;2.80;;
27746;SDS011;15138;51.012;4.692;2023-03-04T10:57:52;9.88;;;2.50;;
27746;SDS011;15138;51.012;4.692;2023-03-04T11:00:26;18.00;;;2.63;;
27746;SDS011;15138;51.012;4.692;2023-03-04T11:06:14;16.45;;;4.43;;
27746;SDS011;15138;51.012;4.692;2023-03-04T11:08:51;11.73;;;2.83;;
27746;SDS011;15138;51.012;4.692;2023-03-04T11:11:21;8.85;;;2.70;;
27746;SDS011;15138;51.012;4.692;2023-03-04T11:13:52;11.18;;;3.05;;
27746;SDS011;15138;51.012;4.692;2023-03-04T11:16:27;10.45;;;2.80;;
27746;SDS011;15138;51.012;4.692;2023-03-04T11:18:58;7.93;;;2.72;;
27746;SDS011;15138;51.012;4.692;2023-03-04T11:21:33;9.88;;;2.95;;
27746;SDS011;15138;51.012;4.692;2023-03-04T11:24:08;9.15;;;2.80;;
27746;SDS011;15138;51.012;4.692;2023-03-04T11:26:54;14.05;;;3.15;;
27746;SDS011;15138;51.012;4.692;2023-03-04T11:29:28;13.38;;;3.85;;
27746;SDS011;15138;51.012;4.692;2023-03-04T11:32:02;7.13;;;2.33;;
27746;SDS011;15138;51.012;4.692;2023-03-04T11:34:36;8.77;;;2.78;;
27746;SDS011;15138;51.012;4.692;2023-03-04T11:37:11;7.03;;;2.22;;
27746;SDS011;15138;51.012;4.692;2023-03-04T11:39:46;10.00;;;2.30;;
27746;SDS011;15138;51.012;4.692;2023-03-04T11:42:21;7.38;;;1.95;;
27746;SDS011;15138;51.012;4.692;2023-03-04T11:44:55;7.03;;;2.30;;
27746;SDS011;15138;51.012;4.692;2023-03-04T11:47:34;9.32;;;2.97;;
27746;SDS011;15138;51.012;4.692;2023-03-04T11:50:17;7.80;;;2.35;;
27746;SDS011;15138;51.012;4.692;2023-03-04T11:52:55;5.60;;;1.95;;
27746;SDS011;15138;51.012;4.692;2023-03-04T11:55:37;8.85;;;2.00;;
27746;SDS011;15138;51.012;4.692;2023-03-04T12:01:05;8.93;;;2.10;;
27746;SDS011;15138;51.012;4.692;2023-03-04T12:03:41;4.20;;;1.10;;
27746;SDS011;15138;51.012;4.692;2023-03-04T12:06:25;5.97;;;1.67;;
27746;SDS011;15138;51.012;4.692;2023-03-04T12:09:02;8.60;;;2.13;;
27746;SDS011;15138;51.012;4.692;2023-03-04T12:11:45;8.52;;;1.70;;
27746;SDS011;15138;51.012;4.692;2023-03-04T12:14:25;7.50;;;1.70;;
27746;SDS011;15138;51.012;4.692;2023-03-04T12:23:02;5.35;;;1.60;;
27746;SDS011;15138;51.012;4.692;2023-03-04T12:25:39;8.20;;;1.98;;
27746;SDS011;15138;51.012;4.692;2023-03-04T12:31:17;9.57;;;2.20;;
27746;SDS011;15138;51.012;4.692;2023-03-04T12:34:04;7.63;;;2.00;;
27746;SDS011;15138;51.012;4.692;2023-03-04T12:37:15;6.63;;;2.58;;
27746;SDS011;15138;51.012;4.692;2023-03-04T12:40:11;10.05;;;2.25;;
27746;SDS011;15138;51.012;4.692;2023-03-04T12:45:48;7.97;;;2.28;;
27746;SDS011;15138;51.012;4.692;2023-03-04T12:48:26;8.35;;;2.70;;
27746;SDS011;15138;51.012;4.692;2023-03-04T12:51:05;5.50;;;2.10;;
27746;SDS011;15138;51.012;4.692;2023-03-04T12:53:47;8.55;;;3.00;;
27746;SDS011;15138;51.012;4.692;2023-03-04T12:56:24;10.18;;;2.83;;
27746;SDS011;15138;51.012;4.692;2023-03-04T12:58:57;7.00;;;2.72;;
27746;SDS011;15138;51.012;4.692;2023-03-04T13:01:27;7.10;;;2.50;;
27746;SDS011;15138;51.012;4.692;2023-03-04T13:04:01;5.38;;;2.25;;
27746;SDS011;15138;51.012;4.692;2023-03-04T13:09:11;9.23;;;3.40;;
27746;SDS011;15138;51.012;4.692;2023-03-04T13:11:50;8.23;;;2.92;;
27746;SDS011;15138;51.012;4.692;2023-03-04T13:14:30;10.40;;;2.95;;
27746;SDS011;15138;51.012;4.692;2023-03-04T13:17:01;7.10;;;2.00;;
27746;SDS011;15138;51.012;4.692;2023-03-04T13:19:46;6.17;;;2.50;;
27746;SDS011;15138;51.012;4.692;2023-03-04T13:22:25;7.18;;;2.20;;
27746;SDS011;15138;51.012;4.692;2023-03-04T13:25:25;8.38;;;2.50;;
27746;SDS011;15138;51.012;4.692;2023-03-04T13:28:25;7.07;;;2.50;;
27746;SDS011;15138;51.012;4.692;2023-03-04T13:33:46;5.13;;;2.10;;
27746;SDS011;15138;51.012;4.692;2023-03-04T13:39:31;4.45;;;2.33;;
27746;SDS011;15138;51.012;4.692;2023-03-04T13:42:04;10.00;;;3.08;;
27746;SDS011;15138;51.012;4.692;2023-03-04T13:47:59;3.80;;;2.00;;
27746;SDS011;15138;51.012;4.692;2023-03-04T13:50:33;3.80;;;2.28;;
27746;SDS011;15138;51.012;4.692;2023-03-04T13:53:29;5.60;;;2.80;;
27746;SDS011;15138;51.012;4.692;2023-03-04T13:56:05;2.40;;;1.77;;
27746;SDS011;15138;51.012;4.692;2023-03-04T13:58:42;5.63;;;2.63;;
27746;SDS011;15138;51.012;4.692;2023-03-04T14:01:23;4.32;;;2.40;;
27746;SDS011;15138;51.012;4.692;2023-03-04T14:03:54;5.55;;;1.90;;
27746;SDS011;15138;51.012;4.692;2023-03-04T14:06:23;5.03;;;2.47;;
27746;SDS011;15138;51.012;4.692;2023-03-04T14:08:53;5.82;;;2.22;;
27746;SDS011;15138;51.012;4.692;2023-03-04T14:11:23;4.60;;;2.13;;
27746;SDS011;15138;51.012;4.692;2023-03-04T14:13:56;3.72;;;2.38;;
27746;SDS011;15138;51.012;4.692;2023-03-04T14:16:27;9.40;;;3.38;;
27746;SDS011;15138;51.012;4.692;2023-03-04T14:19:00;13.50;;;4.47;;
27746;SDS011;15138;51.012;4.692;2023-03-04T14:21:31;4.03;;;2.10;;
27746;SDS011;15138;51.012;4.692;2023-03-04T14:24:03;8.35;;;3.58;;
27746;SDS011;15138;51.012;4.692;2023-03-04T14:26:33;6.38;;;3.28;;
27746;SDS011;15138;51.012;4.692;2023-03-04T14:31:51;9.38;;;3.30;;
27746;SDS011;15138;51.012;4.692;2023-03-04T14:34:23;6.43;;;2.58;;
27746;SDS011;15138;51.012;4.692;2023-03-04T14:36:55;9.45;;;2.92;;
27746;SDS011;15138;51.012;4.692;2023-03-04T14:39:24;9.95;;;4.30;;
27746;SDS011;15138;51.012;4.692;2023-03-04T14:41:56;8.55;;;4.30;;
27746;SDS011;15138;51.012;4.692;2023-03-04T14:44:31;9.38;;;3.97;;
27746;SDS011;15138;51.012;4.692;2023-03-04T14:47:08;8.90;;;4.78;;
27746;SDS011;15138;51.012;4.692;2023-03-04T14:49:43;4.53;;;3.03;;
27746;SDS011;15138;51.012;4.692;2023-03-04T14:52:30;5.72;;;4.20;;
27746;SDS011;15138;51.012;4.692;2023-03-04T14:55:07;7.20;;;3.97;;
27746;SDS011;15138;51.012;4.692;2023-03-04T14:57:44;8.95;;;4.93;;
27746;SDS011;15138;51.012;4.692;2023-03-04T15:00:25;6.93;;;3.70;;
27746;SDS011;15138;51.012;4.692;2023-03-04T15:02:56;5.95;;;3.80;;
27746;SDS011;15138;51.012;4.692;2023-03-04T15:05:27;9.68;;;4.13;;
27746;SDS011;15138;51.012;4.692;2023-03-04T15:07:57;7.22;;;2.60;;
27746;SDS011;15138;51.012;4.692;2023-03-04T15:10:27;11.82;;;3.80;;
27746;SDS011;15138;51.012;4.692;2023-03-04T15:12:58;6.28;;;4.05;;
27746;SDS011;15138;51.012;4.692;2023-03-04T15:15:39;6.40;;;3.58;;
27746;SDS011;15138;51.012;4.692;2023-03-04T15:18:22;4.35;;;3.67;;
27746;SDS011;15138;51.012;4.692;2023-03-04T15:20:56;4.47;;;3.30;;
27746;SDS011;15138;51.012;4.692;2023-03-04T15:23:26;4.40;;;3.15;;
27746;SDS011;15138;51.012;4.692;2023-03-04T15:25:56;2.90;;;2.03;;
27746;SDS011;15138;51.012;4.692;2023-03-04T15:28:29;4.05;;;1.40;;
27746;SDS011;15138;51.012;4.692;2023-03-04T15:31:01;4.60;;;1.92;;
27746;SDS011;15138;51.012;4.692;2023-03-04T15:33:30;2.75;;;1.70;;
27746;SDS011;15138;51.012;4.692;2023-03-04T15:35:59;7.28;;;3.15;;